Terminal Aerodrome Forecast
Issued by NWS

Home | Current Version | Previous Version | Text Only | Print | Product List | Glossary On
Versions: 1 2 3 4 5 6 7 8 9 10 11 12 13
000
FTUS43 KOAX 270520
TAFBFF
TAF
KBFF 270520Z 2706/2806 03009KT P6SM SCT250
     FM270800 02006KT P6SM VCSH SCT007
     FM271500 05007KT P6SM SCT012 BKN250
     FM272200 10010KT P6SM -SHRA VCTS BKN050CB=

USA.gov is the U.S. government's official web portal to all federal, state and local government web resources and services.